Time;durP1;ratioP1;P1;durP2;ratioP2;P2;SDS_P1;SDS_P2;PMS_P1;PMS_P2;Temp;Humidity;BMP_temperature;BMP_pressure;BME280_temperature;BME280_humidity;BME280_pressure;Samples;Min_cycle;Max_cycle;Signal;HPM_P1;HPM_P2
2023/01/27 00:00:17;;;;;;;9.27;1.33;;;7.20;99.90;;;;;;5000459;23;20206;-95
2023/01/27 00:02:20;;;;;;;10.23;1.53;;;7.20;99.90;;;;;;5001722;23;20160;-93
2023/01/27 00:04:21;;;;;;;15.50;1.63;;;7.10;99.90;;;;;;4999787;23;20242;-95
2023/01/27 00:06:22;;;;;;;15.73;2.53;;;7.10;99.90;;;;;;4998541;23;20528;-96
2023/01/27 00:08:23;;;;;;;11.20;1.60;;;7.20;99.90;;;;;;5002135;23;20572;-96
2023/01/27 00:10:27;;;;;;;14.33;1.50;;;7.10;99.90;;;;;;5022935;23;20285;-95
2023/01/27 00:14:52;;;;;;;16.83;1.90;;;7.20;99.90;;;;;;5024023;23;20210;-95
2023/01/27 00:16:52;;;;;;;14.67;1.70;;;7.00;99.90;;;;;;5001665;23;20238;-93
2023/01/27 00:18:56;;;;;;;16.13;1.87;;;7.00;99.90;;;;;;4999191;23;20267;-93
2023/01/27 00:26:05;;;;;;;20.90;2.20;;;7.20;99.90;;;;;;4979950;23;20170;-91
2023/01/27 00:28:22;;;;;;;15.37;1.53;;;7.00;99.90;;;;;;5003844;23;20495;-95
2023/01/27 00:30:25;;;;;;;17.07;1.67;;;7.10;99.90;;;;;;5023401;23;20254;-96
2023/01/27 00:34:51;;;;;;;15.40;1.60;;;6.90;99.90;;;;;;5022740;23;20175;-94
2023/01/27 00:36:58;;;;;;;10.60;1.20;;;6.90;99.90;;;;;;5002855;23;20160;-96
2023/01/27 00:38:59;;;;;;;7.87;1.30;;;6.70;99.90;;;;;;5000712;23;20220;-96
2023/01/27 00:41:18;;;;;;;16.40;1.70;;;6.80;99.90;;;;;;5001021;23;20216;-96
2023/01/27 00:43:19;;;;;;;9.20;1.10;;;6.70;99.90;;;;;;5026505;23;20159;-95
2023/01/27 00:47:58;;;;;;;15.83;2.17;;;6.80;99.90;;;;;;5025377;23;20193;-96
2023/01/27 00:50:01;;;;;;;15.10;1.77;;;6.70;99.90;;;;;;5007167;23;20694;-95
2023/01/27 00:52:03;;;;;;;10.93;1.50;;;6.70;99.90;;;;;;4998985;23;20226;-96
2023/01/27 00:54:04;;;;;;;12.27;1.73;;;6.70;99.90;;;;;;5002811;23;20164;-95
2023/01/27 00:56:05;;;;;;;8.03;1.60;;;6.70;99.90;;;;;;4998906;23;20163;-96
2023/01/27 00:58:16;;;;;;;;;;;;;;;;;;;;;
2023/01/27 01:00:17;;;;;;;16.03;1.83;;;6.60;99.90;;;;;;5026397;23;20190;-93
2023/01/27 01:02:18;;;;;;;12.87;1.50;;;6.70;99.90;;;;;;4999821;23;20163;-93
2023/01/27 01:04:24;;;;;;;21.73;1.83;;;6.70;99.90;;;;;;5024446;23;20219;-92
2023/01/27 01:06:45;;;;;;;14.73;1.77;;;6.70;99.90;;;;;;5022850;23;20167;-96
2023/01/27 01:08:55;;;;;;;13.33;1.47;;;6.60;99.90;;;;;;4979215;23;20267;-96
2023/01/27 01:11:04;;;;;;;20.20;1.80;;;6.60;99.90;;;;;;5003965;23;20159;-95
2023/01/27 01:13:10;;;;;;;12.03;2.03;;;6.60;99.90;;;;;;5002360;23;20163;-95
2023/01/27 01:15:11;;;;;;;18.17;1.70;;;6.70;99.90;;;;;;5029099;23;20162;-95
2023/01/27 01:17:23;;;;;;;11.87;2.10;;;6.70;99.90;;;;;;4999875;23;20163;-95
2023/01/27 01:19:29;;;;;;;19.40;2.20;;;6.70;99.90;;;;;;5002319;23;20247;-96
2023/01/27 01:21:44;;;;;;;17.03;2.20;;;6.70;99.90;;;;;;5024476;23;20606;-94
2023/01/27 01:23:45;;;;;;;18.70;2.10;;;6.80;99.90;;;;;;5002879;23;20168;-96
2023/01/27 01:26:05;;;;;;;19.10;2.17;;;6.70;99.90;;;;;;5001359;23;20156;-95
2023/01/27 01:28:09;;;;;;;18.17;2.00;;;6.60;99.90;;;;;;5001839;23;20191;-95
2023/01/27 01:30:13;;;;;;;17.90;2.23;;;6.60;99.90;;;;;;4977094;23;20627;-94
2023/01/27 01:32:14;;;;;;;13.60;1.40;;;6.70;99.90;;;;;;5002130;23;20197;-95
2023/01/27 01:34:21;;;;;;;21.30;2.00;;;6.80;99.90;;;;;;5003429;23;20159;-95
2023/01/27 01:36:37;;;;;;;16.63;2.00;;;6.80;99.90;;;;;;5001924;23;20163;-93
2023/01/27 01:38:39;;;;;;;17.37;1.60;;;6.70;99.90;;;;;;5002593;23;20176;-93
2023/01/27 01:41:00;;;;;;;21.03;2.20;;;6.80;99.90;;;;;;5004307;23;20568;-93
2023/01/27 01:43:22;;;;;;;15.67;1.93;;;6.80;99.90;;;;;;5008254;23;20140;-96
2023/01/27 01:45:31;;;;;;;17.77;2.23;;;6.70;99.90;;;;;;5002224;23;20191;-96
2023/01/27 01:47:32;;;;;;;18.17;2.07;;;6.70;99.90;;;;;;5000414;23;20183;-96
2023/01/27 01:49:40;;;;;;;13.17;1.97;;;6.70;99.90;;;;;;5023274;23;20158;-96
2023/01/27 01:51:47;;;;;;;17.27;2.37;;;6.60;99.90;;;;;;4976397;23;20166;-96
2023/01/27 01:53:55;;;;;;;16.93;2.20;;;6.70;99.90;;;;;;5000357;23;20159;-96
2023/01/27 01:56:12;;;;;;;20.57;2.50;;;6.70;99.90;;;;;;5006093;23;20163;-96
2023/01/27 01:58:19;;;;;;;19.00;2.40;;;6.70;99.90;;;;;;4981517;23;20259;-95
2023/01/27 02:00:23;;;;;;;14.87;1.90;;;6.60;99.90;;;;;;5026093;23;20202;-96
2023/01/27 02:02:24;;;;;;;19.33;2.47;;;6.60;99.90;;;;;;5001608;23;20164;-95
2023/01/27 02:04:31;;;;;;;14.87;2.40;;;6.70;99.90;;;;;;5000884;23;20163;-96
2023/01/27 02:06:48;;;;;;;20.17;2.63;;;6.70;99.90;;;;;;5001200;23;20156;-96
2023/01/27 02:08:54;;;;;;;17.20;2.63;;;6.70;99.90;;;;;;4980856;23;20179;-95
2023/01/27 02:10:58;;;;;;;17.10;2.93;;;6.60;99.90;;;;;;5002232;23;20208;-96
2023/01/27 02:13:01;;;;;;;18.53;3.40;;;6.70;99.90;;;;;;4979489;23;20164;-95
2023/01/27 02:15:04;;;;;;;13.67;2.00;;;6.70;99.90;;;;;;5002536;23;20148;-96
2023/01/27 02:17:17;;;;;;;26.17;2.60;;;6.70;99.90;;;;;;4976484;23;20247;-95
2023/01/27 02:19:25;;;;;;;20.53;3.20;;;6.70;99.90;;;;;;4977817;23;20667;-96
2023/01/27 02:21:26;;;;;;;16.23;2.80;;;6.60;99.90;;;;;;5001465;23;20168;-93
2023/01/27 02:23:49;;;;;;;21.73;2.77;;;6.60;99.90;;;;;;4976173;23;20268;-93
2023/01/27 02:26:31;;;;;;;17.77;2.87;;;6.60;99.90;;;;;;5003428;23;20188;-93
2023/01/27 02:28:43;;;;;;;16.27;2.60;;;6.60;99.90;;;;;;5005313;23;20171;-96
2023/01/27 02:30:44;;;;;;;15.27;2.10;;;6.60;99.90;;;;;;5002454;23;20148;-95
2023/01/27 02:32:48;;;;;;;15.97;2.10;;;6.50;99.90;;;;;;5000183;23;20568;-93
2023/01/27 02:34:52;;;;;;;18.17;2.80;;;6.50;99.90;;;;;;4977739;23;20160;-93
2023/01/27 02:37:09;;;;;;;14.57;1.83;;;6.50;99.90;;;;;;4977160;23;20192;-94
2023/01/27 02:39:17;;;;;;;15.83;2.50;;;6.50;99.90;;;;;;5002923;23;20686;-96
2023/01/27 02:41:36;;;;;;;14.73;2.23;;;6.50;99.90;;;;;;4976220;23;20154;-96
2023/01/27 02:43:44;;;;;;;11.97;1.73;;;6.50;99.90;;;;;;5002952;23;20163;-96
2023/01/27 02:45:46;;;;;;;18.80;2.00;;;6.40;99.90;;;;;;5002686;23;20166;-93
2023/01/27 02:47:47;;;;;;;13.27;2.00;;;6.30;99.90;;;;;;5001299;23;20187;-93
2023/01/27 02:49:50;;;;;;;11.47;2.20;;;6.30;99.90;;;;;;4999675;23;20163;-94
2023/01/27 02:51:57;;;;;;;14.97;2.20;;;6.30;99.90;;;;;;5024395;23;20482;-93
2023/01/27 02:54:01;;;;;;;8.90;1.67;;;6.30;99.90;;;;;;4999289;23;20246;-93
2023/01/27 02:56:02;;;;;;;9.83;2.13;;;6.30;99.90;;;;;;5000242;23;20626;-96
2023/01/27 02:58:03;;;;;;;13.70;1.77;;;6.30;99.90;;;;;;5005103;23;20199;-96
2023/01/27 03:00:21;;;;;;;17.87;2.10;;;6.20;99.90;;;;;;4981379;23;20195;-96
2023/01/27 03:02:29;;;;;;;10.93;2.13;;;6.20;99.90;;;;;;5026606;23;20194;-94
2023/01/27 03:04:37;;;;;;;10.87;2.20;;;6.20;99.90;;;;;;4999176;23;20160;-95
2023/01/27 03:06:44;;;;;;;15.00;2.40;;;6.10;99.90;;;;;;4979926;23;20248;-96
2023/01/27 03:08:47;;;;;;;15.60;2.10;;;6.10;99.90;;;;;;5004128;23;20195;-95
2023/01/27 03:10:54;;;;;;;10.80;2.00;;;6.10;99.90;;;;;;5003161;23;20159;-95
2023/01/27 03:12:56;;;;;;;13.90;1.90;;;6.10;99.90;;;;;;5024104;23;20575;-95
2023/01/27 03:19:38;;;;;;;10.60;1.47;;;6.10;99.90;;;;;;5024620;23;20198;-92
2023/01/27 03:21:41;;;;;;;7.63;1.97;;;6.10;99.90;;;;;;5003351;23;20144;-95
2023/01/27 03:23:44;;;;;;;11.33;1.87;;;6.00;99.90;;;;;;5001522;23;20481;-95
2023/01/27 03:25:54;;;;;;;14.60;1.90;;;6.10;99.90;;;;;;5000495;23;20163;-94
2023/01/27 03:28:03;;;;;;;13.33;2.37;;;6.10;99.90;;;;;;5005723;23;20331;-96
2023/01/27 03:30:17;;;;;;;15.30;2.17;;;6.10;99.90;;;;;;4977862;23;20608;-95
2023/01/27 03:32:31;;;;;;;12.33;1.33;;;6.10;99.90;;;;;;5005737;23;20160;-95
2023/01/27 03:35:05;;;;;;;10.93;1.77;;;6.10;99.90;;;;;;4914854;23;20459;-96
2023/01/27 03:47:04;;;;;;;9.27;1.53;;;6.20;99.90;;;;;;5003377;23;20150;-96
2023/01/27 03:49:08;;;;;;;13.07;2.40;;;6.20;99.90;;;;;;4999260;23;20183;-96
2023/01/27 03:51:15;;;;;;;9.50;1.50;;;6.10;99.90;;;;;;5001210;23;20245;-96
2023/01/27 03:53:26;;;;;;;12.57;1.97;;;6.00;99.90;;;;;;4980845;23;20179;-95
2023/01/27 03:55:39;;;;;;;11.60;1.70;;;6.10;99.90;;;;;;4999407;23;20568;-95
2023/01/27 03:57:40;;;;;;;12.87;1.80;;;6.00;99.90;;;;;;5002048;23;20199;-95
2023/01/27 03:59:41;;;;;;;13.37;2.50;;;6.00;99.90;;;;;;5002578;23;20191;-95
2023/01/27 04:01:42;;;;;;;9.27;1.53;;;6.10;99.90;;;;;;5002528;23;20260;-95
2023/01/27 04:08:54;;;;;;;8.90;1.80;;;6.00;99.90;;;;;;5000379;23;20270;-95
2023/01/27 04:13:41;;;;;;;13.00;2.33;;;6.00;99.90;;;;;;4999267;23;20156;-95
2023/01/27 04:15:46;;;;;;;9.27;1.60;;;6.00;99.90;;;;;;5024500;23;20163;-95
2023/01/27 04:17:56;;;;;;;8.97;2.23;;;6.10;99.90;;;;;;5033129;23;20166;-96
2023/01/27 04:20:00;;;;;;;8.90;2.20;;;6.10;99.90;;;;;;4982017;23;20199;-96
2023/01/27 04:22:25;;;;;;;8.20;2.10;;;6.10;99.90;;;;;;4997239;23;20191;-95
2023/01/27 04:24:50;;;;;;;7.43;1.70;;;6.10;99.90;;;;;;5002705;23;20195;-95
2023/01/27 04:27:04;;;;;;;8.90;2.37;;;6.10;99.90;;;;;;4979241;23;20168;-95
2023/01/27 04:29:08;;;;;;;11.47;2.57;;;6.10;99.90;;;;;;4977261;23;20160;-95
2023/01/27 04:31:12;;;;;;;10.77;2.47;;;6.00;99.90;;;;;;4999108;23;20166;-95
2023/01/27 04:33:20;;;;;;;8.13;2.13;;;6.00;99.90;;;;;;4998685;23;20231;-96
2023/01/27 04:35:24;;;;;;;10.63;2.93;;;5.90;99.90;;;;;;5000119;23;20151;-94
2023/01/27 04:37:28;;;;;;;8.57;2.37;;;5.90;99.90;;;;;;5006317;23;20262;-96
2023/01/27 04:39:53;;;;;;;16.10;2.33;;;5.90;99.90;;;;;;5002819;23;20235;-95
2023/01/27 04:42:09;;;;;;;5.37;2.30;;;6.00;99.90;;;;;;5000109;23;20162;-96
2023/01/27 04:44:15;;;;;;;9.80;2.70;;;6.00;99.90;;;;;;5001628;23;20163;-95
2023/01/27 04:47:09;;;;;;;;;;;;;;;;;;;;;
2023/01/27 04:49:30;;;;;;;8.30;2.00;;;6.00;99.90;;;;;;5022974;23;20170;-95
2023/01/27 04:51:42;;;;;;;13.37;2.47;;;6.00;99.90;;;;;;4999968;23;20547;-96
2023/01/27 04:53:48;;;;;;;12.67;2.37;;;6.00;99.90;;;;;;5002360;23;20771;-95
2023/01/27 04:56:31;;;;;;;11.00;2.60;;;6.00;99.90;;;;;;5003585;23;20168;-95
2023/01/27 04:58:51;;;;;;;24.50;3.03;;;5.90;99.90;;;;;;5007648;23;20274;-95
2023/01/27 05:01:00;;;;;;;7.90;2.23;;;5.90;99.90;;;;;;5002057;23;20199;-96
2023/01/27 05:03:04;;;;;;;12.37;2.90;;;5.80;99.90;;;;;;4977248;23;20619;-95
2023/01/27 05:05:39;;;;;;;10.47;3.97;;;5.80;99.90;;;;;;4977051;23;20481;-96
2023/01/27 05:08:48;;;;;;;;;;;;;;;;;;;;;
2023/01/27 05:10:53;;;;;;;11.40;3.07;;;5.40;99.90;;;;;;4975592;23;20166;-95
2023/01/27 05:13:06;;;;;;;7.03;2.93;;;5.30;99.90;;;;;;5000919;23;20164;-96
2023/01/27 05:15:14;;;;;;;12.80;4.20;;;5.30;99.90;;;;;;4981588;23;20160;-96
2023/01/27 05:17:15;;;;;;;10.63;4.40;;;5.30;99.90;;;;;;4998761;23;20206;-96
2023/01/27 05:19:26;;;;;;;13.83;4.20;;;5.30;99.90;;;;;;5000517;23;20158;-94
2023/01/27 05:21:27;;;;;;;13.47;4.00;;;5.20;99.90;;;;;;5001029;23;20143;-94
2023/01/27 05:23:40;;;;;;;11.33;4.70;;;5.20;99.90;;;;;;5002414;23;20155;-95
2023/01/27 05:25:55;;;;;;;;;;;;;;;;;;;;;
2023/01/27 05:28:25;;;;;;;;;;;;;;;;;;;;;
2023/01/27 05:30:30;;;;;;;9.67;5.13;;;4.90;99.90;;;;;;5001999;23;20533;-95
2023/01/27 05:32:35;;;;;;;12.53;5.00;;;5.00;99.90;;;;;;5005069;23;20218;-95
2023/01/27 05:34:39;;;;;;;14.53;6.73;;;5.00;99.90;;;;;;5003593;23;20638;-96
2023/01/27 05:37:49;;;;;;;;;;;;;;;;;;;;;
2023/01/27 05:40:02;;;;;;;8.70;4.60;;;4.90;99.90;;;;;;4995436;23;20206;-95
2023/01/27 05:44:45;;;;;;;15.23;6.20;;;4.80;99.90;;;;;;5030950;23;20210;-94
2023/01/27 05:46:51;;;;;;;11.30;6.43;;;4.90;99.90;;;;;;4976022;23;20214;-94
2023/01/27 05:48:56;;;;;;;14.80;6.13;;;4.90;99.90;;;;;;4976943;23;20180;-95
2023/01/27 05:50:58;;;;;;;13.73;6.70;;;4.90;99.90;;;;;;4952885;23;20516;-94
2023/01/27 05:53:01;;;;;;;13.47;6.53;;;4.90;99.90;;;;;;4999683;23;20151;-95
2023/01/27 05:55:02;;;;;;;14.93;6.50;;;4.80;99.90;;;;;;4975433;23;20159;-94
2023/01/27 05:57:06;;;;;;;11.83;6.37;;;4.80;99.90;;;;;;5003466;23;20144;-94
2023/01/27 05:59:08;;;;;;;13.60;7.00;;;4.80;99.90;;;;;;4979737;23;20213;-94
2023/01/27 06:01:21;;;;;;;9.80;7.00;;;4.80;99.90;;;;;;4977131;23;20199;-96
2023/01/27 06:03:22;;;;;;;13.10;6.30;;;4.80;99.90;;;;;;4980026;23;20556;-96
2023/01/27 06:05:23;;;;;;;13.40;7.03;;;4.80;99.90;;;;;;4954077;23;20168;-94
2023/01/27 06:07:27;;;;;;;16.10;6.73;;;4.70;99.90;;;;;;5001549;23;20215;-95
2023/01/27 06:09:30;;;;;;;14.37;6.30;;;4.70;99.90;;;;;;4980482;23;20157;-93
2023/01/27 06:11:39;;;;;;;10.53;4.73;;;4.70;99.90;;;;;;4978289;23;20175;-96
2023/01/27 06:13:40;;;;;;;12.47;5.70;;;4.60;99.90;;;;;;4952400;24;20168;-94
2023/01/27 06:15:43;;;;;;;12.10;4.70;;;4.60;99.90;;;;;;4976581;23;20163;-95
2023/01/27 06:17:43;;;;;;;16.90;6.30;;;4.60;99.90;;;;;;4954185;23;20217;-95
2023/01/27 06:19:47;;;;;;;15.23;7.00;;;4.70;99.90;;;;;;4997778;23;20239;-94
2023/01/27 06:21:48;;;;;;;14.40;6.77;;;4.70;99.90;;;;;;4974420;23;20160;-92
2023/01/27 06:23:49;;;;;;;14.47;6.00;;;4.70;99.90;;;;;;4974422;23;20199;-93
2023/01/27 06:25:54;;;;;;;15.33;6.80;;;4.70;99.90;;;;;;4951897;23;20164;-95
2023/01/27 06:27:56;;;;;;;18.70;6.83;;;4.70;99.90;;;;;;4951677;23;20649;-95
2023/01/27 06:29:56;;;;;;;16.10;6.90;;;4.70;99.90;;;;;;4979095;23;20156;-95
2023/01/27 06:31:57;;;;;;;17.23;7.07;;;4.80;99.90;;;;;;4974745;23;20160;-95
2023/01/27 06:34:01;;;;;;;17.03;6.43;;;4.80;99.90;;;;;;4951085;23;20498;-94
2023/01/27 06:36:23;;;;;;;15.47;7.47;;;4.80;99.90;;;;;;4976639;23;20172;-95
2023/01/27 06:38:24;;;;;;;18.03;7.50;;;4.70;99.90;;;;;;4949231;23;20213;-95
2023/01/27 06:40:26;;;;;;;13.93;6.83;;;4.70;99.90;;;;;;4998201;23;20200;-93
2023/01/27 06:42:27;;;;;;;17.63;8.40;;;4.70;99.90;;;;;;4975241;23;20595;-93
2023/01/27 06:44:27;;;;;;;18.53;7.60;;;4.60;99.90;;;;;;4977053;23;20214;-93
2023/01/27 06:46:28;;;;;;;17.13;7.67;;;4.60;99.90;;;;;;4974274;23;20160;-94
2023/01/27 06:48:29;;;;;;;19.37;7.93;;;4.60;99.90;;;;;;4974539;23;20216;-93
2023/01/27 06:50:30;;;;;;;15.33;7.03;;;4.50;99.90;;;;;;4974356;23;20683;-95
2023/01/27 06:52:32;;;;;;;15.00;5.77;;;4.40;99.90;;;;;;4975297;23;20161;-94
2023/01/27 06:54:33;;;;;;;15.40;5.83;;;4.40;99.90;;;;;;4975252;23;20155;-94
2023/01/27 06:56:41;;;;;;;20.20;7.80;;;4.40;99.90;;;;;;4974775;23;20228;-94
2023/01/27 06:58:43;;;;;;;17.13;7.73;;;4.40;99.90;;;;;;4977245;23;20184;-95
2023/01/27 07:00:50;;;;;;;18.23;6.83;;;4.50;99.90;;;;;;4976529;23;20176;-94
2023/01/27 07:02:52;;;;;;;17.50;7.63;;;4.50;99.90;;;;;;4953300;23;20244;-93
2023/01/27 07:04:53;;;;;;;22.40;8.97;;;4.40;99.90;;;;;;4998215;23;20160;-95
2023/01/27 07:06:54;;;;;;;23.30;8.80;;;4.40;99.90;;;;;;4950986;23;20244;-94
2023/01/27 07:08:54;;;;;;;18.47;8.90;;;4.40;99.90;;;;;;4974397;23;20191;-93
2023/01/27 07:10:55;;;;;;;22.17;9.77;;;4.30;99.90;;;;;;4974996;23;20164;-94
2023/01/27 07:13:13;;;;;;;22.27;9.37;;;4.40;99.90;;;;;;4977524;23;20168;-94
2023/01/27 07:15:14;;;;;;;22.63;9.37;;;4.30;99.90;;;;;;4950799;23;20161;-92
2023/01/27 07:17:14;;;;;;;21.70;9.67;;;4.30;99.90;;;;;;4975521;23;20153;-95
2023/01/27 07:19:15;;;;;;;25.57;10.50;;;4.40;99.90;;;;;;4951099;23;20525;-95
2023/01/27 07:21:19;;;;;;;23.20;8.93;;;4.40;99.90;;;;;;4974992;23;20164;-95
2023/01/27 07:23:36;;;;;;;23.33;9.83;;;4.40;99.90;;;;;;4997886;23;20151;-94
2023/01/27 07:25:36;;;;;;;22.57;9.60;;;4.40;99.90;;;;;;4952767;23;20210;-95
2023/01/27 07:27:38;;;;;;;21.83;9.20;;;4.40;99.90;;;;;;4997468;23;20687;-94
2023/01/27 07:29:43;;;;;;;23.43;10.00;;;4.40;99.90;;;;;;4974133;23;20152;-95
2023/01/27 07:31:43;;;;;;;24.43;10.53;;;4.30;99.90;;;;;;4975501;23;20321;-93
2023/01/27 07:33:44;;;;;;;26.83;12.17;;;4.40;99.90;;;;;;4998001;23;20167;-94
2023/01/27 07:35:48;;;;;;;24.23;11.23;;;4.40;99.90;;;;;;4954042;23;20624;-94
2023/01/27 07:37:49;;;;;;;28.37;11.23;;;4.30;99.90;;;;;;4975899;23;20179;-94
2023/01/27 07:39:50;;;;;;;29.10;11.23;;;4.30;99.90;;;;;;4997595;23;20219;-95
2023/01/27 07:41:52;;;;;;;22.77;11.23;;;4.30;99.90;;;;;;4974140;23;20516;-95
2023/01/27 07:43:53;;;;;;;25.67;10.37;;;4.30;99.90;;;;;;4951080;23;20521;-94
2023/01/27 07:46:01;;;;;;;29.00;10.90;;;4.30;99.90;;;;;;4999148;23;20146;-94
2023/01/27 07:48:04;;;;;;;28.97;11.20;;;4.30;99.90;;;;;;4952164;23;20220;-94
2023/01/27 07:50:05;;;;;;;27.70;11.40;;;4.40;99.90;;;;;;4974527;23;20163;-94
2023/01/27 07:52:06;;;;;;;24.70;11.37;;;4.40;99.90;;;;;;4973792;23;20296;-96
2023/01/27 07:54:07;;;;;;;32.97;12.33;;;4.40;99.90;;;;;;4974699;23;20164;-95
2023/01/27 07:56:10;;;;;;;25.70;11.53;;;4.30;99.90;;;;;;4974368;23;20156;-95
2023/01/27 07:58:15;;;;;;;22.93;11.17;;;4.30;99.90;;;;;;4950846;24;20173;-94
2023/01/27 08:00:16;;;;;;;32.37;12.73;;;4.40;99.90;;;;;;4997597;23;20248;-92
2023/01/27 08:02:17;;;;;;;31.43;12.17;;;4.40;99.90;;;;;;4973405;23;20180;-92
2023/01/27 08:04:20;;;;;;;26.43;12.50;;;4.40;99.90;;;;;;4997529;23;20171;-93
2023/01/27 08:06:23;;;;;;;29.23;12.60;;;4.30;99.90;;;;;;4974403;23;20157;-94
2023/01/27 08:08:27;;;;;;;30.30;13.40;;;4.40;99.90;;;;;;4997535;23;20187;-95
2023/01/27 08:10:28;;;;;;;26.60;13.13;;;4.40;99.90;;;;;;4950922;23;20157;-95
2023/01/27 08:12:29;;;;;;;32.23;12.63;;;4.40;99.90;;;;;;4950597;23;20212;-93
2023/01/27 08:14:29;;;;;;;28.50;10.87;;;4.30;99.90;;;;;;4973891;23;20466;-96
2023/01/27 08:16:30;;;;;;;27.33;12.57;;;4.30;99.90;;;;;;4974179;23;20646;-96
2023/01/27 08:18:34;;;;;;;31.30;13.33;;;4.40;99.90;;;;;;4973687;23;20244;-95
2023/01/27 08:20:36;;;;;;;24.17;12.23;;;4.40;99.90;;;;;;4950760;23;20728;-93
2023/01/27 08:22:36;;;;;;;31.40;12.70;;;4.40;99.90;;;;;;4974012;23;20628;-94
2023/01/27 08:24:37;;;;;;;30.83;13.20;;;4.40;99.90;;;;;;4950267;23;20216;-94
2023/01/27 08:26:42;;;;;;;30.27;11.27;;;4.40;99.90;;;;;;4997065;23;20155;-94
2023/01/27 08:31:40;;;;;;;30.53;13.83;;;4.50;99.90;;;;;;5055839;23;20188;-93
2023/01/27 08:34:58;;;;;;;26.93;12.23;;;4.50;99.90;;;;;;4992140;23;20492;-94
2023/01/27 08:38:02;;;;;;;28.73;13.00;;;4.50;99.90;;;;;;5010616;23;20167;-93
2023/01/27 08:41:23;;;;;;;28.93;12.87;;;4.60;99.90;;;;;;4914065;24;20264;-94
2023/01/27 08:59:17;;;;;;;24.07;11.93;;;4.60;99.90;;;;;;5081136;23;20589;-95
2023/01/27 09:05:56;;;;;;;24.77;10.83;;;4.80;99.90;;;;;;4980002;23;20202;-96
2023/01/27 09:15:59;;;;;;;25.83;13.07;;;4.80;99.90;;;;;;4988983;23;20132;-94
2023/01/27 09:22:04;;;;;;;;;;;;;;;;;;;;;
2023/01/27 09:24:40;;;;;;;24.73;11.40;;;4.50;99.90;;;;;;5039659;23;20193;-94
2023/01/27 09:28:16;;;;;;;;;;;;;;;;;;;;;
2023/01/27 09:31:25;;;;;;;21.90;10.77;;;4.60;99.90;;;;;;4979190;23;20419;-94
2023/01/27 09:34:12;;;;;;;19.57;9.70;;;4.60;99.90;;;;;;4935997;23;20510;-94
2023/01/27 09:42:31;;;;;;;19.83;10.13;;;4.90;99.90;;;;;;5080528;23;20227;-95
2023/01/27 09:45:31;;;;;;;;;;;;;;;;;;;;;
2023/01/27 10:04:22;;;;;;;17.77;8.10;;;5.10;99.90;;;;;;5078074;23;20524;-93
2023/01/27 10:16:09;;;;;;;;;;;;;;;;;;;;;
2023/01/27 10:28:59;;;;;;;17.50;8.67;;;5.40;99.90;;;;;;5057013;23;20264;-95
2023/01/27 10:38:03;;;;;;;;;;;;;;;;;;;;;
2023/01/27 10:51:23;;;;;;;12.97;7.30;;;5.50;99.90;;;;;;5081620;23;20223;-94
2023/01/27 10:56:40;;;;;;;12.43;7.03;;;5.60;99.90;;;;;;5055750;23;20181;-94
2023/01/27 11:00:05;;;;;;;9.40;6.40;;;5.50;99.90;;;;;;5031346;23;20171;-93
2023/01/27 11:06:32;;;;;;;;;;;;;;;;;;;;;
2023/01/27 11:31:01;;;;;;;;;;;;;;;;;;;;;
2023/01/27 11:34:06;;;;;;;;;;;;;;;;;;;;;
2023/01/27 12:12:49;;;;;;;7.63;4.10;;;5.90;99.90;;;;;;5080356;23;20212;-95
2023/01/27 12:15:39;;;;;;;7.80;3.70;;;5.90;99.90;;;;;;4979234;23;20203;-94
2023/01/27 12:18:31;;;;;;;6.10;3.87;;;5.90;99.90;;;;;;5021055;23;20182;-95
2023/01/27 12:21:12;;;;;;;10.20;3.60;;;6.00;99.90;;;;;;5042999;23;20217;-94
2023/01/27 12:23:49;;;;;;;10.53;3.97;;;5.90;99.90;;;;;;5033927;23;20159;-93
2023/01/27 12:26:25;;;;;;;;;;;;;;;;;;;;;
2023/01/27 12:33:22;;;;;;;8.10;4.10;;;5.90;99.90;;;;;;4958583;23;20181;-94
2023/01/27 13:04:14;;;;;;;5.10;3.57;;;5.80;99.90;;;;;;4870446;24;20161;-93
2023/01/27 13:07:22;;;;;;;5.30;3.40;;;5.80;99.90;;;;;;4919045;24;20178;-93
2023/01/27 13:10:09;;;;;;;8.20;3.97;;;5.70;99.90;;;;;;4921472;24;20162;-93
2023/01/27 13:16:23;;;;;;;5.53;3.40;;;5.70;99.90;;;;;;4891502;24;20202;-94
2023/01/27 13:19:36;;;;;;;5.83;3.77;;;5.70;99.90;;;;;;4833676;24;20193;-94
2023/01/27 13:22:35;;;;;;;;;;;;;;;;;;;;;
2023/01/27 13:30:31;;;;;;;;;;;;;;;;;;;;;
2023/01/27 13:33:17;;;;;;;6.17;4.07;;;5.90;99.90;;;;;;5041666;23;20205;-93
2023/01/27 13:36:24;;;;;;;5.57;3.30;;;5.70;99.90;;;;;;4984470;23;20164;-94
2023/01/27 13:39:01;;;;;;;7.03;4.17;;;5.70;99.90;;;;;;4959179;23;20188;-94
2023/01/27 13:45:39;;;;;;;;;;;;;;;;;;;;;
2023/01/27 13:53:57;;;;;;;;;;;;;;;;;;;;;
2023/01/27 13:56:39;;;;;;;4.43;3.17;;;5.60;99.90;;;;;;4966613;23;20153;-94
2023/01/27 13:59:06;;;;;;;4.20;3.47;;;5.50;99.90;;;;;;4982633;23;20172;-93
2023/01/27 14:05:48;;;;;;;6.07;3.40;;;5.40;99.90;;;;;;5082027;23;20188;-96
2023/01/27 14:11:48;;;;;;;5.53;3.47;;;5.50;99.90;;;;;;5024949;23;20260;-94
2023/01/27 14:17:26;;;;;;;7.47;3.67;;;5.50;99.90;;;;;;4925419;23;20176;-93
2023/01/27 14:24:24;;;;;;;;;;;;;;;;;;;;;
2023/01/27 14:38:26;;;;;;;;;;;;;;;;;;;;;
2023/01/27 14:41:51;;;;;;;6.50;4.30;;;5.30;99.90;;;;;;5053488;23;20188;-93
2023/01/27 14:44:27;;;;;;;6.27;4.30;;;5.30;99.90;;;;;;5029277;23;20157;-92
2023/01/27 14:47:58;;;;;;;7.20;4.40;;;5.40;99.90;;;;;;5051086;23;20162;-93
2023/01/27 15:04:47;;;;;;;9.50;5.33;;;5.40;99.90;;;;;;5060120;23;20212;-94
2023/01/27 15:10:31;;;;;;;6.10;3.77;;;5.40;99.90;;;;;;5031748;23;20238;-94
2023/01/27 15:13:22;;;;;;;9.17;4.13;;;5.30;99.90;;;;;;5030343;23;20147;-94
2023/01/27 15:29:50;;;;;;;6.10;3.87;;;5.30;99.90;;;;;;5074191;23;21681;-93
2023/01/27 15:32:45;;;;;;;4.40;3.40;;;5.40;99.90;;;;;;5036762;23;20154;-94
2023/01/27 15:35:35;;;;;;;;;;;;;;;;;;;;;
2023/01/27 15:38:27;;;;;;;9.77;4.23;;;5.30;99.90;;;;;;5055543;23;20177;-94
2023/01/27 15:48:50;;;;;;;12.97;4.27;;;5.20;99.90;;;;;;5053983;23;20188;-94
2023/01/27 15:52:05;;;;;;;5.60;3.07;;;5.30;99.90;;;;;;5033902;23;20166;-94
2023/01/27 16:06:27;;;;;;;7.03;4.10;;;5.20;99.90;;;;;;5052997;23;20174;-95
2023/01/27 16:18:39;;;;;;;9.00;5.27;;;5.10;99.90;;;;;;4779035;24;20201;-95
2023/01/27 16:21:31;;;;;;;6.63;4.37;;;5.00;99.90;;;;;;4974660;23;20190;-93
2023/01/27 16:31:37;;;;;;;8.90;4.53;;;5.10;99.90;;;;;;4939166;23;20247;-94
2023/01/27 16:34:14;;;;;;;9.07;4.77;;;5.00;99.90;;;;;;4981710;23;20273;-93
2023/01/27 16:36:34;;;;;;;7.03;4.00;;;5.10;99.90;;;;;;5003624;23;20199;-95
2023/01/27 16:39:39;;;;;;;9.77;4.30;;;5.10;99.90;;;;;;5005481;23;20240;-93
2023/01/27 16:42:03;;;;;;;6.93;4.47;;;5.10;99.90;;;;;;4899063;24;20178;-94
2023/01/27 16:56:29;;;;;;;8.40;4.60;;;5.20;99.90;;;;;;5050645;23;20157;-94
2023/01/27 16:58:33;;;;;;;8.40;5.10;;;5.30;99.90;;;;;;5025905;23;20178;-93
2023/01/27 17:00:36;;;;;;;7.90;5.50;;;5.20;99.90;;;;;;4999228;23;20675;-93
2023/01/27 17:02:37;;;;;;;8.37;5.57;;;5.20;99.90;;;;;;5044603;23;20678;-92
2023/01/27 17:04:49;;;;;;;8.17;5.33;;;5.10;99.90;;;;;;5024691;23;20245;-92
2023/01/27 17:06:59;;;;;;;9.13;5.63;;;5.10;99.90;;;;;;5022790;23;20159;-93
2023/01/27 17:09:30;;;;;;;8.43;5.67;;;5.20;99.90;;;;;;5001784;23;20183;-91
2023/01/27 17:11:34;;;;;;;8.43;5.60;;;5.20;99.90;;;;;;4998987;23;20192;-92
2023/01/27 17:14:10;;;;;;;10.47;6.10;;;5.20;99.90;;;;;;5022505;23;20178;-93
2023/01/27 17:17:05;;;;;;;9.30;5.70;;;5.20;99.90;;;;;;5016517;23;20171;-92
2023/01/27 17:20:15;;;;;;;7.63;5.37;;;5.30;99.90;;;;;;5045187;23;20147;-92
2023/01/27 17:23:06;;;;;;;12.33;6.00;;;5.20;99.90;;;;;;5054090;23;20178;-91
2023/01/27 17:25:23;;;;;;;8.97;5.07;;;5.30;99.90;;;;;;5023138;23;20230;-92
2023/01/27 17:27:35;;;;;;;8.00;5.53;;;5.30;99.90;;;;;;5002603;23;20523;-92
2023/01/27 17:29:48;;;;;;;9.37;5.77;;;5.40;99.90;;;;;;5048469;23;20669;-92
2023/01/27 17:31:49;;;;;;;10.17;5.80;;;5.30;99.90;;;;;;5022789;23;20234;-93
2023/01/27 17:34:09;;;;;;;9.93;6.30;;;5.30;99.90;;;;;;5026772;23;20155;-91
2023/01/27 17:36:15;;;;;;;10.57;6.40;;;5.30;99.90;;;;;;5001785;23;20163;-91
2023/01/27 17:38:23;;;;;;;12.07;5.80;;;5.30;99.90;;;;;;5022875;23;20182;-92
2023/01/27 17:40:25;;;;;;;10.43;6.33;;;5.30;99.90;;;;;;5055348;23;20177;-92
2023/01/27 17:42:37;;;;;;;9.87;5.90;;;5.30;99.90;;;;;;5053249;23;20138;-92
2023/01/27 17:44:47;;;;;;;10.20;6.10;;;5.30;99.90;;;;;;5026250;23;20223;-93
2023/01/27 17:46:54;;;;;;;9.17;5.40;;;5.30;99.90;;;;;;5002995;23;20152;-93
2023/01/27 17:49:05;;;;;;;16.73;7.93;;;5.30;99.90;;;;;;5023311;23;20179;-95
2023/01/27 17:51:13;;;;;;;14.93;7.70;;;5.40;99.90;;;;;;5047857;23;20178;-94
2023/01/27 17:53:23;;;;;;;8.67;5.07;;;5.40;99.90;;;;;;5026163;23;20171;-93
2023/01/27 17:55:31;;;;;;;10.83;5.50;;;5.40;99.90;;;;;;5029681;23;20157;-92
2023/01/27 17:57:35;;;;;;;10.10;5.30;;;5.30;99.90;;;;;;5028699;23;20509;-94
2023/01/27 17:59:46;;;;;;;10.33;6.07;;;5.30;99.90;;;;;;5051016;23;20166;-94
2023/01/27 18:02:01;;;;;;;9.93;5.50;;;5.30;99.90;;;;;;5022431;23;20166;-94
2023/01/27 18:04:14;;;;;;;11.07;6.30;;;5.30;99.90;;;;;;5050494;23;20245;-94